Time;durP1;ratioP1;P1;durP2;ratioP2;P2;SDS_P1;SDS_P2;PMS_P1;PMS_P2;Temp;Humidity;BMP_temperature;BMP_pressure;BME280_temperature;BME280_humidity;BME280_pressure;Samples;Min_cycle;Max_cycle;Signal;HPM_P1;HPM_P2
2022/09/04 00:00:11;;;;;;;1.60;1.50;;;;;;;;;;1661453;29;21539;-62
2022/09/04 00:01:13;;;;;;;1.77;1.52;;;;;;;;;;1661044;29;21957;-62
2022/09/04 00:02:18;;;;;;;2.13;1.30;;;;;;;;;;1656642;29;21748;-62
2022/09/04 00:03:30;;;;;;;1.75;1.65;;;;;;;;;;1653780;29;21676;-62
2022/09/04 00:04:33;;;;;;;5.05;1.42;;;;;;;;;;1655939;29;22230;-61
2022/09/04 00:05:31;;;;;;;1.83;1.33;;;;;;;;;;1655374;29;21885;-62
2022/09/04 00:06:29;;;;;;;1.58;1.20;;;;;;;;;;1664576;29;21599;-62
2022/09/04 00:07:28;;;;;;;1.58;1.48;;;;;;;;;;1660953;29;22212;-62
2022/09/04 00:08:41;;;;;;;1.30;1.20;;;;;;;;;;1662414;29;21738;-63
2022/09/04 00:09:42;;;;;;;0.70;0.70;;;;;;;;;;1660212;29;21686;-63
2022/09/04 00:10:41;;;;;;;2.67;1.50;;;;;;;;;;1657045;29;22145;-62
2022/09/04 00:11:46;;;;;;;2.65;0.90;;;;;;;;;;1659877;29;21842;-62
2022/09/04 00:12:44;;;;;;;1.48;1.10;;;;;;;;;;1656549;29;21565;-62
2022/09/04 00:13:43;;;;;;;1.10;1.10;;;;;;;;;;1654261;29;21589;-61
2022/09/04 00:14:44;;;;;;;1.35;1.10;;;;;;;;;;1649263;29;21672;-62
2022/09/04 00:15:43;;;;;;;1.50;1.10;;;;;;;;;;1660589;29;21615;-63
2022/09/04 00:16:42;;;;;;;0.80;0.80;;;;;;;;;;1663766;29;21579;-62
2022/09/04 00:17:41;;;;;;;1.52;1.10;;;;;;;;;;1660583;29;21592;-62
2022/09/04 00:18:37;;;;;;;1.00;0.88;;;;;;;;;;1655930;29;21591;-61
2022/09/04 00:19:37;;;;;;;1.23;0.82;;;;;;;;;;1652884;29;21727;-62
2022/09/04 00:20:37;;;;;;;0.93;0.93;;;;;;;;;;1660817;29;21586;-62
2022/09/04 00:21:35;;;;;;;1.58;1.02;;;;;;;;;;1661568;29;21965;-62
2022/09/04 00:22:34;;;;;;;1.00;1.00;;;;;;;;;;1660911;29;21639;-61
2022/09/04 00:23:36;;;;;;;0.98;0.93;;;;;;;;;;1659256;29;22222;-61
2022/09/04 00:24:31;;;;;;;1.10;1.00;;;;;;;;;;1661742;29;21967;-63
2022/09/04 00:25:30;;;;;;;0.75;0.75;;;;;;;;;;1657176;29;21945;-63
2022/09/04 00:26:45;;;;;;;1.25;1.15;;;;;;;;;;1661769;29;21585;-61
2022/09/04 00:27:44;;;;;;;1.23;0.88;;;;;;;;;;1661006;29;21678;-62
2022/09/04 00:28:40;;;;;;;1.98;0.93;;;;;;;;;;1659631;29;21723;-62
2022/09/04 00:29:43;;;;;;;1.30;1.13;;;;;;;;;;1662620;29;21552;-62
2022/09/04 00:30:45;;;;;;;1.70;1.00;;;;;;;;;;1660791;29;21644;-62
2022/09/04 00:31:42;;;;;;;0.98;0.90;;;;;;;;;;1657561;29;22020;-62
2022/09/04 00:32:40;;;;;;;1.23;1.13;;;;;;;;;;1654984;29;21969;-62
2022/09/04 00:33:44;;;;;;;1.40;1.00;;;;;;;;;;1659076;29;21715;-62
2022/09/04 00:34:51;;;;;;;1.48;0.90;;;;;;;;;;1661884;29;22758;-61
2022/09/04 00:35:50;;;;;;;2.50;1.05;;;;;;;;;;1655554;29;22446;-63
2022/09/04 00:36:46;;;;;;;3.53;1.05;;;;;;;;;;1649457;29;21824;-64
2022/09/04 00:37:44;;;;;;;0.80;0.80;;;;;;;;;;1656388;29;21581;-63
2022/09/04 00:38:44;;;;;;;2.03;1.20;;;;;;;;;;1661740;29;21756;-63
2022/09/04 00:39:45;;;;;;;1.02;0.82;;;;;;;;;;1663154;29;22149;-63
2022/09/04 00:40:41;;;;;;;3.42;1.13;;;;;;;;;;1660834;29;21622;-63
2022/09/04 00:41:42;;;;;;;1.17;0.90;;;;;;;;;;1657807;29;22444;-63
2022/09/04 00:43:02;;;;;;;1.10;0.93;;;;;;;;;;1653579;29;21647;-63
2022/09/04 00:44:04;;;;;;;;;;;;;;;;;;1657568;29;21595;-63
2022/09/04 00:45:13;;;;;;;1.35;1.00;;;;;;;;;;1665270;29;22147;-63
2022/09/04 00:46:38;;;;;;;5.45;1.08;;;;;;;;;;1654322;29;21616;-63
2022/09/04 00:48:28;;;;;;;2.38;0.90;;;;;;;;;;1661317;29;22395;-62
2022/09/04 00:49:31;;;;;;;;;;;;;;;;;;1634752;29;21622;-63
2022/09/04 00:51:07;;;;;;;0.80;0.80;;;;;;;;;;1645451;29;21702;-63
2022/09/04 00:52:09;;;;;;;1.10;1.00;;;;;;;;;;1657746;29;21565;-63
2022/09/04 00:53:45;;;;;;;3.17;1.00;;;;;;;;;;1656035;29;21669;-63
2022/09/04 00:55:07;;;;;;;2.40;0.95;;;;;;;;;;1645866;29;21615;-62
2022/09/04 00:56:30;;;;;;;1.33;0.80;;;;;;;;;;1658304;29;22178;-63
2022/09/04 00:58:11;;;;;;;0.80;0.63;;;;;;;;;;1642436;29;22168;-63
2022/09/04 00:59:17;;;;;;;0.70;0.70;;;;;;;;;;1657778;29;22004;-64
2022/09/04 01:00:14;;;;;;;1.23;1.13;;;;;;;;;;1657482;29;21751;-62
2022/09/04 01:01:06;;;;;;;4.68;0.80;;;;;;;;;;1657871;29;21706;-62
2022/09/04 01:02:08;;;;;;;1.23;0.82;;;;;;;;;;1659505;29;22063;-63
2022/09/04 01:03:35;;;;;;;1.67;0.98;;;;;;;;;;1661817;29;21577;-62
2022/09/04 01:04:37;;;;;;;1.23;0.80;;;;;;;;;;1662225;29;21757;-64
2022/09/04 01:05:51;;;;;;;0.95;0.80;;;;;;;;;;1658153;29;21682;-63
2022/09/04 01:06:56;;;;;;;1.23;1.00;;;;;;;;;;1659445;29;22030;-62
2022/09/04 01:08:06;;;;;;;1.20;1.05;;;;;;;;;;1661774;29;22503;-63
2022/09/04 01:09:37;;;;;;;1.17;0.85;;;;;;;;;;1655595;29;21605;-63
2022/09/04 01:10:43;;;;;;;0.90;0.90;;;;;;;;;;1628652;29;21705;-63
2022/09/04 01:11:42;;;;;;;0.98;0.90;;;;;;;;;;1660530;29;22113;-63
2022/09/04 01:12:39;;;;;;;0.90;0.80;;;;;;;;;;1656782;29;21588;-62
2022/09/04 01:13:41;;;;;;;1.05;0.80;;;;;;;;;;1661329;29;21638;-63
2022/09/04 01:14:38;;;;;;;0.80;0.80;;;;;;;;;;1665305;29;22123;-61
2022/09/04 01:15:41;;;;;;;3.20;1.42;;;;;;;;;;1658424;29;22031;-60
2022/09/04 01:16:40;;;;;;;0.60;0.60;;;;;;;;;;1660748;29;21798;-62
2022/09/04 01:17:40;;;;;;;0.90;0.90;;;;;;;;;;1660610;29;21577;-63
2022/09/04 01:18:36;;;;;;;;;;;;;;;;;;1659081;29;21596;-63
2022/09/04 01:19:50;;;;;;;0.70;0.70;;;;;;;;;;1664737;29;21499;-62
2022/09/04 01:21:40;;;;;;;1.08;0.80;;;;;;;;;;1657009;29;21841;-62
2022/09/04 01:22:55;;;;;;;0.80;0.70;;;;;;;;;;1607231;30;22514;-63
2022/09/04 01:24:17;;;;;;;1.23;0.90;;;;;;;;;;1659851;29;21747;-62
2022/09/04 01:25:30;;;;;;;1.80;1.02;;;;;;;;;;1652380;29;21601;-62
2022/09/04 01:26:31;;;;;;;3.30;0.70;;;;;;;;;;1656386;29;21770;-62
2022/09/04 01:27:26;;;;;;;;;;;;;;;;;;1661303;29;22008;-62
2022/09/04 01:28:28;;;;;;;0.82;0.82;;;;;;;;;;1659581;29;21482;-62
2022/09/04 01:29:35;;;;;;;1.10;1.00;;;;;;;;;;1657971;29;22182;-62
2022/09/04 01:30:31;;;;;;;5.63;1.00;;;;;;;;;;1657140;29;21600;-62
2022/09/04 01:31:35;;;;;;;2.78;0.70;;;;;;;;;;1660938;29;21596;-62
2022/09/04 01:32:41;;;;;;;0.85;0.65;;;;;;;;;;1659161;29;21718;-62
2022/09/04 01:33:43;;;;;;;0.70;0.65;;;;;;;;;;1655951;29;22300;-62
2022/09/04 01:34:44;;;;;;;2.05;0.93;;;;;;;;;;1659096;29;21671;-62
2022/09/04 01:35:49;;;;;;;1.40;0.95;;;;;;;;;;1658053;29;22061;-62
2022/09/04 01:36:49;;;;;;;1.00;0.50;;;;;;;;;;1659607;29;22117;-62
2022/09/04 01:37:55;;;;;;;0.80;0.80;;;;;;;;;;1659892;29;22457;-62
2022/09/04 01:38:52;;;;;;;0.77;0.77;;;;;;;;;;1654323;29;21664;-62
2022/09/04 01:40:16;;;;;;;2.25;0.77;;;;;;;;;;1655748;29;21751;-62
2022/09/04 01:41:15;;;;;;;0.73;0.73;;;;;;;;;;1657711;29;21612;-62
2022/09/04 01:42:18;;;;;;;1.65;1.02;;;;;;;;;;1655076;29;22618;-62
2022/09/04 01:43:11;;;;;;;0.95;0.70;;;;;;;;;;1661439;29;21622;-61
2022/09/04 01:44:07;;;;;;;0.77;0.77;;;;;;;;;;1663387;29;21726;-63
2022/09/04 01:44:59;;;;;;;0.90;0.80;;;;;;;;;;1653832;29;21650;-62
2022/09/04 01:46:25;;;;;;;0.63;0.60;;;;;;;;;;1659518;29;22457;-62
2022/09/04 01:47:25;;;;;;;0.70;0.70;;;;;;;;;;1662130;29;21673;-61
2022/09/04 01:48:27;;;;;;;1.30;0.70;;;;;;;;;;1657610;29;22183;-62
2022/09/04 01:49:29;;;;;;;0.63;0.63;;;;;;;;;;1656330;29;21567;-62
2022/09/04 01:50:26;;;;;;;3.25;0.77;;;;;;;;;;1656833;29;21607;-63
2022/09/04 01:51:28;;;;;;;1.88;0.68;;;;;;;;;;1654620;29;22414;-62
2022/09/04 01:52:36;;;;;;;0.68;0.68;;;;;;;;;;1661878;29;21771;-63
2022/09/04 01:53:31;;;;;;;0.50;0.50;;;;;;;;;;1660388;29;21984;-62
2022/09/04 01:54:37;;;;;;;0.85;0.57;;;;;;;;;;1659436;29;21902;-61
2022/09/04 01:55:34;;;;;;;0.68;0.60;;;;;;;;;;1662589;29;21941;-62
2022/09/04 01:56:35;;;;;;;0.75;0.75;;;;;;;;;;1659302;29;21662;-63
2022/09/04 01:57:47;;;;;;;1.40;0.70;;;;;;;;;;1662205;29;22222;-62
2022/09/04 01:58:47;;;;;;;1.35;0.68;;;;;;;;;;1664713;29;22680;-62
2022/09/04 01:59:54;;;;;;;1.00;0.80;;;;;;;;;;1659920;29;22538;-62
2022/09/04 02:00:58;;;;;;;0.63;0.60;;;;;;;;;;1660868;29;22313;-62
2022/09/04 02:01:57;;;;;;;0.68;0.68;;;;;;;;;;1644825;29;22602;-62
2022/09/04 02:03:01;;;;;;;0.63;0.63;;;;;;;;;;1648841;29;21787;-62
2022/09/04 02:03:59;;;;;;;3.67;0.57;;;;;;;;;;1648171;29;21621;-63
2022/09/04 02:05:02;;;;;;;1.90;0.80;;;;;;;;;;1648317;29;21597;-62
2022/09/04 02:06:04;;;;;;;0.73;0.73;;;;;;;;;;1647956;29;21618;-62
2022/09/04 02:07:10;;;;;;;4.22;0.80;;;;;;;;;;1649192;29;22144;-61
2022/09/04 02:08:24;;;;;;;0.63;0.60;;;;;;;;;;1648433;29;21654;-61
2022/09/04 02:09:31;;;;;;;0.77;0.57;;;;;;;;;;1649022;29;22439;-62
2022/09/04 02:10:36;;;;;;;2.22;0.57;;;;;;;;;;1645801;29;21687;-63
2022/09/04 02:11:31;;;;;;;0.50;0.50;;;;;;;;;;1640541;29;21710;-62
2022/09/04 02:12:36;;;;;;;0.80;0.80;;;;;;;;;;1643770;29;22011;-61
2022/09/04 02:13:42;;;;;;;0.85;0.50;;;;;;;;;;1648578;29;22269;-62
2022/09/04 02:14:39;;;;;;;0.73;0.70;;;;;;;;;;1648495;29;22339;-62
2022/09/04 02:15:45;;;;;;;3.13;0.70;;;;;;;;;;1646815;29;22153;-62
2022/09/04 02:16:56;;;;;;;1.90;0.80;;;;;;;;;;1646868;29;22434;-63
2022/09/04 02:17:58;;;;;;;3.08;0.60;;;;;;;;;;1643125;29;21775;-63
2022/09/04 02:19:02;;;;;;;1.83;0.70;;;;;;;;;;1646425;29;22396;-63
2022/09/04 02:20:07;;;;;;;3.75;0.77;;;;;;;;;;1646056;29;22503;-63
2022/09/04 02:21:05;;;;;;;1.05;0.80;;;;;;;;;;1645667;29;21622;-63
2022/09/04 02:22:11;;;;;;;3.50;0.70;;;;;;;;;;1648487;29;21632;-63
2022/09/04 02:23:12;;;;;;;0.68;0.63;;;;;;;;;;1638818;29;22329;-63
2022/09/04 02:24:18;;;;;;;0.63;0.60;;;;;;;;;;1646285;29;21573;-62
2022/09/04 02:25:21;;;;;;;0.65;0.45;;;;;;;;;;1648700;29;22062;-61
2022/09/04 02:26:20;;;;;;;1.92;0.85;;;;;;;;;;1649180;29;21923;-62
2022/09/04 02:27:19;;;;;;;0.77;0.63;;;;;;;;;;1645660;29;21946;-61
2022/09/04 02:28:29;;;;;;;1.02;0.73;;;;;;;;;;1646620;29;21651;-62
2022/09/04 02:29:31;;;;;;;4.45;0.60;;;;;;;;;;1646561;29;21730;-62
2022/09/04 02:30:23;;;;;;;0.50;0.47;;;;;;;;;;1640440;29;21747;-62
2022/09/04 02:31:28;;;;;;;1.40;0.60;;;;;;;;;;1644919;29;21611;-62
2022/09/04 02:32:32;;;;;;;0.95;0.60;;;;;;;;;;1647315;29;22519;-61
2022/09/04 02:33:34;;;;;;;0.75;0.60;;;;;;;;;;1643789;29;21883;-62
2022/09/04 02:34:35;;;;;;;0.75;0.60;;;;;;;;;;1642682;29;21705;-61
2022/09/04 02:35:33;;;;;;;3.85;0.60;;;;;;;;;;1645962;29;22144;-61
2022/09/04 02:36:33;;;;;;;0.80;0.40;;;;;;;;;;1647295;29;21950;-62
2022/09/04 02:37:34;;;;;;;0.70;0.50;;;;;;;;;;1645908;29;21599;-62
2022/09/04 02:38:33;;;;;;;1.73;0.73;;;;;;;;;;1649011;29;21662;-62
2022/09/04 02:39:38;;;;;;;1.77;0.55;;;;;;;;;;1649372;29;22716;-62
2022/09/04 02:40:39;;;;;;;1.23;0.93;;;;;;;;;;1644020;29;21660;-62
2022/09/04 02:41:41;;;;;;;1.58;0.70;;;;;;;;;;1646891;29;21590;-63
2022/09/04 02:42:45;;;;;;;0.60;0.60;;;;;;;;;;1643171;29;21583;-62
2022/09/04 02:43:55;;;;;;;0.93;0.63;;;;;;;;;;1649002;29;22532;-63
2022/09/04 02:45:00;;;;;;;1.92;0.55;;;;;;;;;;1648669;29;21615;-61
2022/09/04 02:45:59;;;;;;;0.70;0.47;;;;;;;;;;1644147;29;21804;-62
2022/09/04 02:47:01;;;;;;;0.57;0.57;;;;;;;;;;1649481;29;22183;-62
2022/09/04 02:48:00;;;;;;;2.13;0.63;;;;;;;;;;1646022;29;21600;-61
2022/09/04 02:49:07;;;;;;;1.17;0.90;;;;;;;;;;1648637;29;22081;-61
2022/09/04 02:50:09;;;;;;;0.68;0.60;;;;;;;;;;1653758;29;22470;-62
2022/09/04 02:51:17;;;;;;;0.93;0.60;;;;;;;;;;1650535;29;22498;-63
2022/09/04 02:52:25;;;;;;;1.40;0.68;;;;;;;;;;1647270;29;21581;-62
2022/09/04 02:53:29;;;;;;;1.90;0.57;;;;;;;;;;1649566;29;21613;-61
2022/09/04 02:54:42;;;;;;;0.55;0.50;;;;;;;;;;1646256;29;22141;-61
2022/09/04 02:55:57;;;;;;;2.03;0.60;;;;;;;;;;1643492;29;21745;-63
2022/09/04 02:57:08;;;;;;;0.85;0.70;;;;;;;;;;1642391;29;21558;-62
2022/09/04 02:58:15;;;;;;;0.50;0.47;;;;;;;;;;1639826;29;21624;-63
2022/09/04 02:59:25;;;;;;;0.93;0.50;;;;;;;;;;1641687;29;22314;-62
2022/09/04 03:00:30;;;;;;;0.60;0.50;;;;;;;;;;1645286;29;21682;-63
2022/09/04 03:01:27;;;;;;;0.50;0.50;;;;;;;;;;1652116;29;21641;-62
2022/09/04 03:02:26;;;;;;;2.08;0.68;;;;;;;;;;1657267;29;22885;-62
2022/09/04 03:03:23;;;;;;;1.05;0.63;;;;;;;;;;1653060;29;22459;-62
2022/09/04 03:04:24;;;;;;;0.90;0.57;;;;;;;;;;1661459;29;21613;-62
2022/09/04 03:05:20;;;;;;;0.60;0.60;;;;;;;;;;1656641;29;22240;-62
2022/09/04 03:06:21;;;;;;;0.47;0.43;;;;;;;;;;1660080;29;21657;-62
2022/09/04 03:07:22;;;;;;;1.85;0.68;;;;;;;;;;1660515;29;21560;-62
2022/09/04 03:08:19;;;;;;;0.70;0.55;;;;;;;;;;1659418;29;21594;-61
2022/09/04 03:09:17;;;;;;;0.65;0.52;;;;;;;;;;1660046;29;21640;-62
2022/09/04 03:10:15;;;;;;;0.55;0.50;;;;;;;;;;1655144;29;21571;-62
2022/09/04 03:11:16;;;;;;;0.85;0.68;;;;;;;;;;1659645;29;21728;-62
2022/09/04 03:12:29;;;;;;;1.05;0.45;;;;;;;;;;1656126;29;22379;-61
2022/09/04 03:13:28;;;;;;;3.63;0.60;;;;;;;;;;1658988;29;21775;-62
2022/09/04 03:14:33;;;;;;;0.80;0.50;;;;;;;;;;1658749;29;22447;-63
2022/09/04 03:15:29;;;;;;;3.63;0.57;;;;;;;;;;1657800;29;22488;-62
2022/09/04 03:16:29;;;;;;;0.47;0.47;;;;;;;;;;1651594;29;21729;-62
2022/09/04 03:17:28;;;;;;;0.90;0.50;;;;;;;;;;1657047;29;22109;-62
2022/09/04 03:18:30;;;;;;;0.40;0.40;;;;;;;;;;1661506;29;21746;-62
2022/09/04 03:19:30;;;;;;;0.68;0.50;;;;;;;;;;1654138;29;22244;-61
2022/09/04 03:20:26;;;;;;;1.13;0.50;;;;;;;;;;1654425;29;21863;-62
2022/09/04 03:21:23;;;;;;;0.88;0.70;;;;;;;;;;1658389;29;21580;-61
2022/09/04 03:22:23;;;;;;;0.60;0.50;;;;;;;;;;1660997;29;21642;-62
2022/09/04 03:23:19;;;;;;;3.97;0.60;;;;;;;;;;1660715;29;22781;-62
2022/09/04 03:24:18;;;;;;;0.52;0.50;;;;;;;;;;1657545;29;22456;-61
2022/09/04 03:25:34;;;;;;;0.30;0.30;;;;;;;;;;1659284;29;21632;-63
2022/09/04 03:26:28;;;;;;;0.47;0.47;;;;;;;;;;1655597;29;21997;-61
2022/09/04 03:27:20;;;;;;;0.60;0.43;;;;;;;;;;1659428;29;21821;-62
2022/09/04 03:28:23;;;;;;;2.90;0.68;;;;;;;;;;1659287;29;21963;-62
2022/09/04 03:29:26;;;;;;;0.60;0.40;;;;;;;;;;1660962;29;21601;-63
2022/09/04 03:30:18;;;;;;;0.63;0.50;;;;;;;;;;1660829;29;22177;-62
2022/09/04 03:31:26;;;;;;;1.00;0.50;;;;;;;;;;1658424;29;22025;-62
2022/09/04 03:32:24;;;;;;;0.32;0.30;;;;;;;;;;1660476;29;22249;-61
2022/09/04 03:33:26;;;;;;;0.40;0.40;;;;;;;;;;1662403;29;21614;-62
2022/09/04 03:34:39;;;;;;;0.50;0.50;;;;;;;;;;1656894;29;22112;-62
2022/09/04 03:35:38;;;;;;;1.30;0.90;;;;;;;;;;1660168;29;21700;-62
2022/09/04 03:36:40;;;;;;;4.10;0.60;;;;;;;;;;1661865;29;21653;-62
2022/09/04 03:37:59;;;;;;;0.45;0.45;;;;;;;;;;1658603;29;21543;-62
2022/09/04 03:39:02;;;;;;;0.50;0.40;;;;;;;;;;1655227;29;21600;-63
2022/09/04 03:40:17;;;;;;;0.70;0.70;;;;;;;;;;1655783;29;21612;-63
2022/09/04 03:41:28;;;;;;;0.50;0.50;;;;;;;;;;1653066;29;22522;-62
2022/09/04 03:42:30;;;;;;;1.17;0.50;;;;;;;;;;1656962;29;22308;-62
2022/09/04 03:43:44;;;;;;;0.50;0.50;;;;;;;;;;1660731;29;22400;-62
2022/09/04 03:44:49;;;;;;;2.85;0.50;;;;;;;;;;1660660;29;21620;-62
2022/09/04 03:45:53;;;;;;;0.60;0.50;;;;;;;;;;1662256;29;21746;-61
2022/09/04 03:47:00;;;;;;;0.52;0.50;;;;;;;;;;1653475;29;21737;-62
2022/09/04 03:48:11;;;;;;;0.70;0.50;;;;;;;;;;1657275;29;21741;-61
2022/09/04 03:49:16;;;;;;;0.63;0.50;;;;;;;;;;1660218;29;21691;-62
2022/09/04 03:50:22;;;;;;;0.52;0.52;;;;;;;;;;1657682;29;21906;-61
2022/09/04 03:51:24;;;;;;;0.90;0.63;;;;;;;;;;1658927;29;22133;-62
2022/09/04 03:52:27;;;;;;;0.65;0.65;;;;;;;;;;1660327;29;21663;-61
2022/09/04 03:53:30;;;;;;;0.75;0.60;;;;;;;;;;1661624;29;21620;-61
2022/09/04 03:55:00;;;;;;;0.60;0.60;;;;;;;;;;1660656;29;21720;-61
2022/09/04 03:56:43;;;;;;;0.88;0.65;;;;;;;;;;1658010;29;21624;-62
2022/09/04 03:57:57;;;;;;;0.50;0.47;;;;;;;;;;1637140;29;21634;-62
2022/09/04 03:59:01;;;;;;;3.20;0.55;;;;;;;;;;1656904;29;21746;-62
2022/09/04 04:00:05;;;;;;;0.55;0.52;;;;;;;;;;1657242;29;22520;-62
2022/09/04 04:01:08;;;;;;;4.22;0.60;;;;;;;;;;1660308;29;21634;-62
2022/09/04 04:02:11;;;;;;;1.05;0.57;;;;;;;;;;1659026;29;21646;-62
2022/09/04 04:03:21;;;;;;;0.70;0.47;;;;;;;;;;1652180;29;21648;-61
2022/09/04 04:04:52;;;;;;;6.28;0.80;;;;;;;;;;1659308;29;21661;-61
2022/09/04 04:06:05;;;;;;;0.70;0.60;;;;;;;;;;1655960;29;21626;-62
2022/09/04 04:07:07;;;;;;;0.60;0.60;;;;;;;;;;1656721;29;21778;-62
2022/09/04 04:08:34;;;;;;;0.65;0.52;;;;;;;;;;1661176;29;21833;-62
2022/09/04 04:09:49;;;;;;;0.50;0.50;;;;;;;;;;1646447;29;21591;-62
2022/09/04 04:10:55;;;;;;;0.50;0.50;;;;;;;;;;1661907;29;21568;-62
2022/09/04 04:12:18;;;;;;;1.77;0.60;;;;;;;;;;1655606;29;21875;-62
2022/09/04 04:13:43;;;;;;;0.70;0.50;;;;;;;;;;1660848;29;21644;-63
2022/09/04 04:14:51;;;;;;;0.95;0.70;;;;;;;;;;1658831;29;22091;-62
2022/09/04 04:16:01;;;;;;;0.70;0.50;;;;;;;;;;1659071;29;21643;-63
2022/09/04 04:17:08;;;;;;;0.57;0.38;;;;;;;;;;1656138;29;22461;-62
2022/09/04 04:18:40;;;;;;;1.58;0.47;;;;;;;;;;1660513;29;21827;-62
2022/09/04 04:19:46;;;;;;;2.00;0.50;;;;;;;;;;1658810;29;21617;-62
2022/09/04 04:20:51;;;;;;;0.82;0.52;;;;;;;;;;1656820;29;22246;-62
2022/09/04 04:21:57;;;;;;;0.57;0.50;;;;;;;;;;1658784;29;22455;-63
2022/09/04 04:23:05;;;;;;;0.80;0.70;;;;;;;;;;1664423;29;21706;-63
2022/09/04 04:24:37;;;;;;;2.20;0.50;;;;;;;;;;1659377;29;21670;-62
2022/09/04 04:25:48;;;;;;;0.40;0.40;;;;;;;;;;1653554;29;22474;-62
2022/09/04 04:26:57;;;;;;;0.47;0.40;;;;;;;;;;1659743;29;21767;-62
2022/09/04 04:28:18;;;;;;;0.60;0.60;;;;;;;;;;1655984;29;21620;-62
2022/09/04 04:30:03;;;;;;;0.60;0.50;;;;;;;;;;1659872;29;22068;-63
2022/09/04 04:31:13;;;;;;;0.73;0.40;;;;;;;;;;1657197;29;22317;-62
2022/09/04 04:32:24;;;;;;;0.77;0.30;;;;;;;;;;1657799;29;21618;-62
2022/09/04 04:33:37;;;;;;;0.65;0.60;;;;;;;;;;1659980;29;21609;-63
2022/09/04 04:34:39;;;;;;;0.93;0.82;;;;;;;;;;1659694;29;22493;-62
2022/09/04 04:35:43;;;;;;;0.45;0.45;;;;;;;;;;1660601;29;21553;-63
2022/09/04 04:36:44;;;;;;;0.50;0.50;;;;;;;;;;1664551;29;21600;-63
2022/09/04 04:37:55;;;;;;;3.75;0.60;;;;;;;;;;1662908;29;21667;-62
2022/09/04 04:39:12;;;;;;;0.40;0.40;;;;;;;;;;1656598;29;21629;-63
2022/09/04 04:40:13;;;;;;;0.68;0.57;;;;;;;;;;1656182;29;22449;-63
2022/09/04 04:41:23;;;;;;;2.75;0.52;;;;;;;;;;1660795;29;22407;-62
2022/09/04 04:42:24;;;;;;;0.52;0.52;;;;;;;;;;1658949;29;21923;-62
2022/09/04 04:43:21;;;;;;;;;;;;;;;;;;1657547;29;21704;-62
2022/09/04 04:44:16;;;;;;;0.47;0.45;;;;;;;;;;1661443;29;21497;-62
2022/09/04 04:46:54;;;;;;;0.43;0.43;;;;;;;;;;1657746;29;21572;-62
2022/09/04 04:48:45;;;;;;;0.50;0.43;;;;;;;;;;1655974;29;21683;-63
2022/09/04 04:49:51;;;;;;;;;;;;;;;;;;1656582;29;22357;-62
2022/09/04 04:50:52;;;;;;;0.55;0.40;;;;;;;;;;1661373;29;21682;-63
2022/09/04 04:52:24;;;;;;;0.52;0.50;;;;;;;;;;1659966;29;21691;-62
2022/09/04 04:53:24;;;;;;;0.20;0.20;;;;;;;;;;1650392;29;21545;-62
2022/09/04 04:54:45;;;;;;;1.67;0.43;;;;;;;;;;1658635;29;21669;-63
2022/09/04 04:55:49;;;;;;;0.60;0.40;;;;;;;;;;1660780;29;21587;-62
2022/09/04 04:56:50;;;;;;;0.30;0.30;;;;;;;;;;1661676;29;21586;-62
2022/09/04 04:58:13;;;;;;;2.75;0.52;;;;;;;;;;1662235;29;21815;-62
2022/09/04 04:59:19;;;;;;;0.40;0.40;;;;;;;;;;1654926;29;21856;-61
2022/09/04 05:00:17;;;;;;;3.30;0.47;;;;;;;;;;1661658;29;22145;-62
2022/09/04 05:01:25;;;;;;;0.40;0.40;;;;;;;;;;1660265;29;21799;-62
2022/09/04 05:02:25;;;;;;;0.30;0.30;;;;;;;;;;1659814;29;22401;-62
2022/09/04 05:03:26;;;;;;;0.68;0.40;;;;;;;;;;1661573;29;21624;-62
2022/09/04 05:04:27;;;;;;;8.77;0.50;;;;;;;;;;1659895;29;21631;-62
2022/09/04 05:05:28;;;;;;;0.75;0.40;;;;;;;;;;1659879;29;21574;-63
2022/09/04 05:06:30;;;;;;;0.50;0.40;;;;;;;;;;1657194;29;22590;-62
2022/09/04 05:07:36;;;;;;;1.00;0.45;;;;;;;;;;1660958;29;21606;-62
2022/09/04 05:08:40;;;;;;;3.83;0.43;;;;;;;;;;1658357;29;21609;-63
2022/09/04 05:09:44;;;;;;;0.40;0.38;;;;;;;;;;1662374;29;22257;-62
2022/09/04 05:10:40;;;;;;;0.47;0.47;;;;;;;;;;1661004;29;22503;-62
2022/09/04 05:11:45;;;;;;;0.80;0.70;;;;;;;;;;1660560;29;21737;-63
2022/09/04 05:12:55;;;;;;;0.93;0.63;;;;;;;;;;1655612;29;21581;-62
2022/09/04 05:13:59;;;;;;;1.17;0.80;;;;;;;;;;1659068;29;21610;-62
2022/09/04 05:14:58;;;;;;;2.90;0.43;;;;;;;;;;1663689;29;21793;-62
2022/09/04 05:15:59;;;;;;;2.38;0.85;;;;;;;;;;1655797;29;21668;-61
2022/09/04 05:17:01;;;;;;;0.70;0.45;;;;;;;;;;1659589;29;21597;-62
2022/09/04 05:18:03;;;;;;;0.93;0.47;;;;;;;;;;1660038;29;21699;-62
2022/09/04 05:19:00;;;;;;;1.38;0.50;;;;;;;;;;1658977;29;22285;-62
2022/09/04 05:20:11;;;;;;;1.60;0.70;;;;;;;;;;1663643;29;22282;-62
2022/09/04 05:21:14;;;;;;;2.92;0.60;;;;;;;;;;1660693;29;21825;-62
2022/09/04 05:22:16;;;;;;;1.83;0.50;;;;;;;;;;1659168;29;21653;-62
2022/09/04 05:23:31;;;;;;;0.40;0.40;;;;;;;;;;1662615;29;21667;-62
2022/09/04 05:24:31;;;;;;;2.33;0.63;;;;;;;;;;1659407;29;21620;-62
2022/09/04 05:25:29;;;;;;;;;;;;;;;;;;1657133;29;21639;-62
2022/09/04 05:26:30;;;;;;;0.70;0.50;;;;;;;;;;1657041;29;22429;-62
2022/09/04 05:27:48;;;;;;;2.40;0.63;;;;;;;;;;1661350;29;22455;-62
2022/09/04 05:28:55;;;;;;;3.58;0.47;;;;;;;;;;1665585;29;21938;-62
2022/09/04 05:29:55;;;;;;;1.27;0.60;;;;;;;;;;1660185;29;21665;-62
2022/09/04 05:30:51;;;;;;;;;;;;;;;;;;1654060;29;21813;-62
2022/09/04 05:31:54;;;;;;;3.35;0.50;;;;;;;;;;1658759;29;21604;-62
2022/09/04 05:32:57;;;;;;;1.08;0.50;;;;;;;;;;1661257;29;21909;-63
2022/09/04 05:33:59;;;;;;;8.18;0.70;;;;;;;;;;1659951;29;21964;-63
2022/09/04 05:35:08;;;;;;;0.38;0.35;;;;;;;;;;1658553;29;22581;-63
2022/09/04 05:36:11;;;;;;;5.88;0.63;;;;;;;;;;1655516;29;21662;-63
2022/09/04 05:37:11;;;;;;;2.40;0.68;;;;;;;;;;1653436;29;22262;-61
2022/09/04 05:38:08;;;;;;;;;;;;;;;;;;1660447;29;23006;-63
2022/09/04 05:39:09;;;;;;;6.35;0.57;;;;;;;;;;1660958;29;21514;-60
2022/09/04 05:40:06;;;;;;;0.52;0.50;;;;;;;;;;1662975;29;22657;-60
2022/09/04 05:41:05;;;;;;;0.40;0.40;;;;;;;;;;1654242;29;22181;-62
2022/09/04 05:42:33;;;;;;;2.30;0.57;;;;;;;;;;1657572;29;21594;-63
2022/09/04 05:43:40;;;;;;;3.10;0.80;;;;;;;;;;1659982;29;21694;-62
2022/09/04 05:44:44;;;;;;;1.30;0.60;;;;;;;;;;1662335;29;21636;-61
2022/09/04 05:45:55;;;;;;;0.88;0.50;;;;;;;;;;1658347;29;21613;-62
2022/09/04 05:47:01;;;;;;;3.95;0.73;;;;;;;;;;1652949;29;21628;-62
2022/09/04 05:48:09;;;;;;;2.17;0.52;;;;;;;;;;1658315;29;21645;-61
2022/09/04 05:49:12;;;;;;;0.50;0.40;;;;;;;;;;1659019;29;21809;-60
2022/09/04 05:50:31;;;;;;;2.00;0.50;;;;;;;;;;1660797;29;21667;-62
2022/09/04 05:51:53;;;;;;;0.70;0.63;;;;;;;;;;1659196;29;22897;-63
2022/09/04 05:53:13;;;;;;;4.10;0.80;;;;;;;;;;1654918;29;21666;-62
2022/09/04 05:54:27;;;;;;;7.18;0.70;;;;;;;;;;1655819;29;22246;-62
2022/09/04 05:55:51;;;;;;;0.40;0.40;;;;;;;;;;1661711;29;22281;-62
2022/09/04 05:57:03;;;;;;;0.93;0.45;;;;;;;;;;1655298;29;21659;-62
2022/09/04 05:58:12;;;;;;;4.03;0.73;;;;;;;;;;1654522;29;21818;-63
2022/09/04 05:59:53;;;;;;;0.50;0.43;;;;;;;;;;1663197;29;21815;-62
2022/09/04 06:00:59;;;;;;;0.77;0.50;;;;;;;;;;1657646;29;21685;-62
2022/09/04 06:02:22;;;;;;;0.55;0.50;;;;;;;;;;1647621;29;22278;-62
2022/09/04 06:03:44;;;;;;;0.57;0.40;;;;;;;;;;1646888;29;21841;-62
2022/09/04 06:05:12;;;;;;;1.15;0.65;;;;;;;;;;1645626;29;22366;-62
2022/09/04 06:06:17;;;;;;;0.50;0.43;;;;;;;;;;1645509;29;21997;-62
2022/09/04 06:07:16;;;;;;;0.50;0.50;;;;;;;;;;1644109;29;21646;-61
2022/09/04 06:08:26;;;;;;;1.30;0.50;;;;;;;;;;1649633;29;21726;-61
2022/09/04 06:09:39;;;;;;;0.30;0.30;;;;;;;;;;1647615;29;22600;-62
2022/09/04 06:10:47;;;;;;;0.70;0.55;;;;;;;;;;1645201;29;21724;-62
2022/09/04 06:12:27;;;;;;;1.02;0.38;;;;;;;;;;1647083;29;21749;-61
2022/09/04 06:13:33;;;;;;;0.47;0.43;;;;;;;;;;1630488;30;21691;-62
2022/09/04 06:14:54;;;;;;;1.45;0.63;;;;;;;;;;1642679;29;21732;-62
2022/09/04 06:16:01;;;;;;;0.47;0.47;;;;;;;;;;1648333;29;22003;-62
2022/09/04 06:17:23;;;;;;;0.70;0.50;;;;;;;;;;1647295;29;21676;-62
2022/09/04 06:19:00;;;;;;;2.33;0.50;;;;;;;;;;1644997;29;22587;-62
2022/09/04 06:20:17;;;;;;;1.60;0.50;;;;;;;;;;1645083;29;22139;-62
2022/09/04 06:22:22;;;;;;;2.08;0.47;;;;;;;;;;1644112;29;21657;-62
2022/09/04 06:23:39;;;;;;;0.60;0.47;;;;;;;;;;1611768;30;21971;-62
2022/09/04 06:25:19;;;;;;;1.02;0.70;;;;;;;;;;1618196;30;21623;-62
2022/09/04 06:26:36;;;;;;;0.65;0.50;;;;;;;;;;1626373;29;22013;-61
2022/09/04 06:27:51;;;;;;;0.65;0.50;;;;;;;;;;1629937;30;21891;-62
2022/09/04 06:29:34;;;;;;;2.70;0.75;;;;;;;;;;1644527;29;21722;-62
2022/09/04 06:30:36;;;;;;;1.48;0.60;;;;;;;;;;1642706;29;21971;-62
2022/09/04 06:31:50;;;;;;;1.05;0.60;;;;;;;;;;1645006;29;22489;-62
2022/09/04 06:33:39;;;;;;;4.05;0.50;;;;;;;;;;1646685;29;22469;-61
2022/09/04 06:35:01;;;;;;;0.95;0.68;;;;;;;;;;1637552;29;22363;-61
2022/09/04 06:36:37;;;;;;;0.77;0.57;;;;;;;;;;1647126;29;21885;-62
2022/09/04 06:37:38;;;;;;;1.25;0.57;;;;;;;;;;1624964;30;22595;-62
2022/09/04 06:38:50;;;;;;;0.50;0.35;;;;;;;;;;1646604;29;21785;-63
2022/09/04 06:40:00;;;;;;;3.90;0.63;;;;;;;;;;1642546;29;22722;-62
2022/09/04 06:41:09;;;;;;;1.10;0.63;;;;;;;;;;1646794;29;21704;-62
2022/09/04 06:42:20;;;;;;;1.30;0.55;;;;;;;;;;1645273;29;22265;-62
2022/09/04 06:43:26;;;;;;;0.57;0.30;;;;;;;;;;1646707;29;21841;-62
2022/09/04 06:44:32;;;;;;;3.15;0.30;;;;;;;;;;1647013;29;22371;-61